Time;durP1;ratioP1;P1;durP2;ratioP2;P2;SDS_P1;SDS_P2;PMS_P1;PMS_P2;Temp;Humidity;BMP_temperature;BMP_pressure;BME280_temperature;BME280_humidity;BME280_pressure;Samples;Min_cycle;Max_cycle;Signal;HPM_P1;HPM_P2
2023/05/23 00:00:27;;;;;;;18.00;12.00;;;;;;;11.55;80.40;98826.98;273611;1257;22406;-85
2023/05/23 00:06:59;;;;;;;16.40;10.60;;;;;;;11.53;80.35;98818.35;272968;1267;23144;-83
2023/05/23 00:13:00;;;;;;;18.30;11.30;;;;;;;11.52;80.62;98815.69;272190;1267;23411;-83
2023/05/23 00:19:02;;;;;;;15.50;10.90;;;;;;;11.50;80.69;98811.38;271199;1266;23782;-84
2023/05/23 00:25:08;;;;;;;18.10;10.50;;;;;;;11.44;81.11;98814.73;273607;1254;23716;-84
2023/05/23 00:31:09;;;;;;;14.80;8.00;;;;;;;11.39;82.45;98811.16;271508;1261;23313;-84
2023/05/23 00:37:10;;;;;;;13.50;9.20;;;;;;;11.25;82.85;98805.69;273555;1264;22408;-84
2023/05/23 00:43:12;;;;;;;13.80;9.90;;;;;;;10.98;82.79;98808.42;272829;1258;23145;-83
2023/05/23 00:49:14;;;;;;;15.60;10.40;;;;;;;10.69;83.08;98808.00;273898;1267;22320;-83
2023/05/23 00:55:15;;;;;;;14.10;10.20;;;;;;;10.50;83.65;98803.69;273928;1265;22858;-85
2023/05/23 01:01:17;;;;;;;13.00;8.60;;;;;;;10.38;84.12;98793.51;271354;1257;22551;-83
2023/05/23 01:07:19;;;;;;;11.90;8.30;;;;;;;10.28;84.89;98792.10;271344;1267;22531;-83
2023/05/23 01:13:41;;;;;;;11.50;8.70;;;;;;;10.11;85.24;98789.02;272329;1266;23231;-83
2023/05/23 01:19:51;;;;;;;19.60;10.80;;;;;;;10.02;85.65;98791.03;271387;1267;22561;-83
2023/05/23 01:26:26;;;;;;;17.10;9.90;;;;;;;9.94;85.94;98789.92;271809;1267;22551;-84
2023/05/23 01:32:27;;;;;;;15.30;10.00;;;;;;;9.74;86.12;98788.38;271675;1258;23697;-84
2023/05/23 01:38:28;;;;;;;18.80;10.00;;;;;;;9.60;86.73;98790.73;272066;1267;22409;-83
2023/05/23 01:44:29;;;;;;;15.20;9.60;;;;;;;9.57;87.51;98787.73;272087;1266;22529;-83
2023/05/23 01:50:31;;;;;;;16.50;11.10;;;;;;;9.46;87.49;98780.34;271889;1257;22340;-83
2023/05/23 01:56:32;;;;;;;16.70;10.70;;;;;;;9.38;87.42;98780.33;273455;1254;22407;-84
2023/05/23 02:02:35;;;;;;;14.90;9.70;;;;;;;9.29;87.93;98774.98;274003;1266;22321;-84
2023/05/23 02:08:35;;;;;;;13.80;10.10;;;;;;;9.23;88.37;98770.36;274046;1263;22274;-83
2023/05/23 02:14:38;;;;;;;17.70;10.80;;;;;;;9.17;88.99;98767.57;273984;1266;22674;-84
2023/05/23 02:20:39;;;;;;;12.90;9.90;;;;;;;9.13;89.21;98764.78;273386;1251;22543;-83
2023/05/23 02:26:40;;;;;;;18.40;11.00;;;;;;;9.07;89.37;98755.41;272112;1251;22521;-84
2023/05/23 02:32:42;;;;;;;17.10;10.50;;;;;;;8.97;89.46;98752.01;271681;1266;25388;-83
2023/05/23 02:38:43;;;;;;;12.40;9.40;;;;;;;8.92;89.92;98753.73;271346;1263;25520;-83
2023/05/23 02:44:45;;;;;;;17.90;11.50;;;;;;;8.84;90.20;98753.23;272654;1266;22240;-84
2023/05/23 02:50:46;;;;;;;19.90;11.10;;;;;;;8.76;90.18;98753.98;274247;1266;22441;-84
2023/05/23 02:56:47;;;;;;;16.90;11.30;;;;;;;8.67;90.42;98752.69;274021;1266;22174;-84
2023/05/23 03:02:49;;;;;;;13.30;10.90;;;;;;;8.62;90.83;98756.89;274191;1267;22334;-83
2023/05/23 03:08:53;;;;;;;14.70;11.40;;;;;;;8.55;90.98;98751.48;274171;1265;22213;-84
2023/05/23 03:14:55;;;;;;;20.40;12.30;;;;;;;8.51;91.21;98746.20;274174;1266;22332;-83
2023/05/23 03:20:59;;;;;;;13.70;9.90;;;;;;;8.50;91.70;98739.55;274252;1266;22331;-84
2023/05/23 03:27:00;;;;;;;16.40;10.10;;;;;;;8.51;92.29;98743.47;274122;1256;22323;-84
2023/05/23 03:33:02;;;;;;;12.40;9.90;;;;;;;8.49;92.28;98741.81;274087;1266;22313;-83
2023/05/23 03:39:03;;;;;;;14.30;9.90;;;;;;;8.49;93.02;98741.88;274159;1263;22434;-83
2023/05/23 03:45:05;;;;;;;17.90;10.60;;;;;;;8.65;93.93;98744.92;274141;1256;22375;-83
2023/05/23 03:51:07;;;;;;;16.70;10.60;;;;;;;8.87;94.44;98748.36;274209;1266;22392;-84
2023/05/23 03:57:08;;;;;;;15.10;10.50;;;;;;;9.04;94.55;98749.05;273981;1257;24389;-83
2023/05/23 04:03:14;;;;;;;15.10;10.20;;;;;;;9.11;94.54;98758.04;273393;1257;24191;-83
2023/05/23 04:09:15;;;;;;;17.30;11.20;;;;;;;9.26;95.01;98759.08;273821;1257;22327;-83
2023/05/23 04:15:39;;;;;;;19.10;11.10;;;;;;;9.41;95.44;98757.19;273933;1267;22283;-84
2023/05/23 04:21:44;;;;;;;15.40;11.60;;;;;;;9.58;95.67;98753.62;272039;1259;22530;-83
2023/05/23 04:27:48;;;;;;;19.40;13.00;;;;;;;9.74;95.66;98748.33;273646;1257;22328;-83
2023/05/23 04:33:50;;;;;;;21.80;12.70;;;;;;;9.97;95.57;98744.50;273775;1263;22538;-84
2023/05/23 04:39:54;;;;;;;18.70;12.80;;;;;;;10.24;95.42;98738.04;273180;1256;23334;-86
2023/05/23 04:46:08;;;;;;;20.60;12.90;;;;;;;10.52;95.27;98735.05;272470;1259;23131;-86
2023/05/23 04:52:13;;;;;;;18.00;13.30;;;;;;;10.80;94.88;98732.73;273584;1266;22550;-85
2023/05/23 04:58:18;;;;;;;17.20;13.40;;;;;;;11.08;94.41;98730.23;272848;1263;22341;-85
2023/05/23 05:04:22;;;;;;;27.60;13.90;;;;;;;11.34;93.88;98729.87;271953;1266;24179;-85
2023/05/23 05:10:24;;;;;;;18.10;13.10;;;;;;;11.55;93.41;98733.00;273703;1264;22531;-83
2023/05/23 05:16:25;;;;;;;18.40;12.10;;;;;;;11.78;93.78;98729.48;273938;1261;22319;-83
2023/05/23 05:23:00;;;;;;;18.90;11.30;;;;;;;12.06;93.71;98733.20;273692;1257;23244;-85
2023/05/23 05:29:03;;;;;;;20.50;11.60;;;;;;;12.41;93.42;98725.99;273721;1266;23710;-84
2023/05/23 05:35:07;;;;;;;17.70;11.30;;;;;;;12.72;92.88;98720.63;274045;1266;23061;-84
2023/05/23 05:41:09;;;;;;;20.70;12.10;;;;;;;12.93;92.41;98721.05;274036;1266;23664;-84
2023/05/23 05:47:14;;;;;;;17.10;11.30;;;;;;;13.11;92.09;98716.23;274032;1266;22396;-83
2023/05/23 05:53:16;;;;;;;17.20;10.40;;;;;;;13.30;91.66;98713.80;273996;1266;22687;-84
2023/05/23 05:59:17;;;;;;;15.10;10.80;;;;;;;13.50;91.30;98710.88;274010;1266;23516;-83
2023/05/23 06:05:19;;;;;;;16.00;11.00;;;;;;;13.72;91.00;98707.77;273422;1258;22537;-84
2023/05/23 06:11:22;;;;;;;15.50;11.40;;;;;;;13.95;91.14;98702.66;271955;1266;24259;-84
2023/05/23 06:17:23;;;;;;;17.20;11.60;;;;;;;14.20;90.62;98689.13;273392;1266;23552;-84
2023/05/23 06:23:24;;;;;;;18.90;11.20;;;;;;;14.44;90.09;98688.23;273988;1257;22334;-84
2023/05/23 06:29:26;;;;;;;15.10;10.60;;;;;;;14.69;89.90;98685.45;274025;1266;23402;-84
2023/05/23 06:35:27;;;;;;;14.50;9.20;;;;;;;14.98;89.01;98685.85;274036;1265;23461;-84
2023/05/23 06:41:28;;;;;;;13.80;8.70;;;;;;;15.31;88.43;98686.41;274067;1254;22335;-83
2023/05/23 06:47:29;;;;;;;14.30;8.10;;;;;;;15.64;87.65;98684.80;274011;1259;23576;-84
2023/05/23 06:53:30;;;;;;;11.70;7.50;;;;;;;16.10;87.16;98679.38;273967;1267;23103;-84
2023/05/23 06:59:32;;;;;;;13.20;7.90;;;;;;;16.60;86.29;98667.64;273888;1257;22381;-84
2023/05/23 07:05:35;;;;;;;10.00;7.40;;;;;;;17.12;85.41;98664.90;273755;1266;22399;-85
2023/05/23 07:11:38;;;;;;;10.60;7.90;;;;;;;17.73;84.05;98666.07;272475;1266;22484;-83
2023/05/23 07:17:40;;;;;;;13.20;7.20;;;;;;;18.03;83.24;98664.02;273094;1266;22484;-85
2023/05/23 07:23:45;;;;;;;14.00;6.70;;;;;;;18.64;82.06;98661.30;273764;1266;22980;-85
2023/05/23 07:29:46;;;;;;;7.80;5.80;;;;;;;19.26;80.48;98658.80;273841;1266;23019;-84
2023/05/23 07:35:47;;;;;;;10.80;6.00;;;;;;;19.47;78.62;98653.36;273939;1266;22294;-83
2023/05/23 07:41:49;;;;;;;10.20;6.10;;;;;;;19.90;77.56;98656.61;273237;1266;22399;-85
2023/05/23 07:47:50;;;;;;;11.50;6.70;;;;;;;20.52;76.62;98653.73;271289;1256;22681;-85
2023/05/23 07:53:52;;;;;;;13.10;6.30;;;;;;;20.85;74.15;98654.93;273618;1266;22227;-84
2023/05/23 07:59:56;;;;;;;10.30;6.20;;;;;;;21.17;73.14;98646.73;271960;1266;22937;-86
2023/05/23 08:05:59;;;;;;;10.40;6.00;;;;;;;21.37;72.25;98644.46;273398;1265;24241;-84
2023/05/23 08:12:01;;;;;;;13.50;5.60;;;;;;;21.51;70.90;98646.87;272051;1260;22224;-84
2023/05/23 08:18:04;;;;;;;8.70;5.80;;;;;;;21.53;69.53;98645.37;273414;1267;22791;-85
2023/05/23 08:24:06;;;;;;;13.20;6.30;;;;;;;21.52;68.35;98647.13;274026;1266;23900;-83
2023/05/23 08:30:09;;;;;;;12.00;6.40;;;;;;;21.72;67.21;98649.31;274034;1263;22307;-82
2023/05/23 08:36:10;;;;;;;11.80;6.20;;;;;;;21.85;65.88;98645.48;273583;1256;22354;-83
2023/05/23 08:42:12;;;;;;;10.20;6.20;;;;;;;21.87;65.31;98646.95;271509;1265;22513;-85
2023/05/23 08:48:18;;;;;;;13.50;6.00;;;;;;;21.83;64.21;98643.42;272662;1266;23645;-83
2023/05/23 08:54:21;;;;;;;9.30;5.80;;;;;;;21.83;63.01;98643.13;272292;1266;22541;-85
2023/05/23 09:00:23;;;;;;;10.30;5.90;;;;;;;21.94;62.52;98636.29;272671;1260;22321;-84
2023/05/23 09:06:24;;;;;;;9.40;5.50;;;;;;;21.98;61.43;98632.96;273531;1259;22323;-83
2023/05/23 09:12:25;;;;;;;10.50;5.50;;;;;;;22.07;59.99;98632.73;273922;1257;22422;-83
2023/05/23 09:18:35;;;;;;;15.30;5.40;;;;;;;22.19;59.73;98628.00;273731;1266;22279;-84
2023/05/23 09:24:37;;;;;;;7.00;4.80;;;;;;;22.47;58.48;98627.22;274034;1266;22448;-84
2023/05/23 09:30:41;;;;;;;9.20;4.80;;;;;;;22.85;57.76;98621.54;273311;1257;24225;-84
2023/05/23 09:36:45;;;;;;;10.30;5.50;;;;;;;23.26;56.95;98615.05;271717;1261;22546;-84
2023/05/23 09:42:47;;;;;;;8.90;4.50;;;;;;;23.64;55.37;98606.40;272641;1253;22494;-85
2023/05/23 09:48:50;;;;;;;8.20;4.30;;;;;;;24.15;54.45;98603.63;272907;1256;22480;-84
2023/05/23 09:54:53;;;;;;;7.40;4.40;;;;;;;24.75;52.72;98601.67;273925;1266;106397;-84
2023/05/23 10:01:02;;;;;;;9.90;4.20;;;;;;;25.40;51.40;98601.88;273935;1259;22329;-86
2023/05/23 10:07:13;;;;;;;9.00;4.10;;;;;;;25.67;50.48;98602.36;272866;1266;22222;-83
2023/05/23 10:13:14;;;;;;;10.90;3.90;;;;;;;26.16;49.21;98599.02;273929;1265;22350;-85
2023/05/23 10:19:40;;;;;;;6.80;4.00;;;;;;;26.51;48.52;98592.46;273924;1253;22373;-83
2023/05/23 10:25:42;;;;;;;9.30;4.90;;;;;;;26.53;47.37;98588.16;273630;1267;23896;-83
2023/05/23 10:31:44;;;;;;;8.40;4.30;;;;;;;26.48;46.84;98584.11;271919;1266;22662;-84
2023/05/23 10:38:14;;;;;;;7.10;3.90;;;;;;;26.00;44.22;98572.33;272137;1266;22337;-84
2023/05/23 10:44:43;;;;;;;9.10;3.70;;;;;;;26.06;43.92;98568.80;272573;1259;22544;-85
2023/05/23 10:50:45;;;;;;;7.30;4.20;;;;;;;26.39;43.48;98569.95;273475;1265;23279;-83
2023/05/23 10:57:02;;;;;;;10.00;4.00;;;;;;;26.63;43.65;98565.26;273999;1266;22335;-83
2023/05/23 11:03:05;;;;;;;;;;;;;;;27.10;42.86;98555.73;273916;1267;23765;-83
2023/05/23 11:09:11;;;;;;;8.10;4.20;;;;;;;27.62;41.70;98545.49;274047;1256;23160;-84
2023/05/23 11:15:15;;;;;;;;;;;;;;;27.99;40.93;98539.99;273900;1259;22532;-83
2023/05/23 11:21:42;;;;;;;6.20;3.40;;;;;;;28.22;40.58;98529.94;273873;1256;22972;-84
2023/05/23 11:27:45;;;;;;;6.10;3.70;;;;;;;28.48;40.48;98518.80;273688;1259;22437;-84
2023/05/23 11:33:52;;;;;;;6.20;3.60;;;;;;;28.64;39.47;98514.96;273529;1259;23725;-83
2023/05/23 11:39:53;;;;;;;;;;;;;;;28.59;38.96;98505.62;273881;1266;22419;-82
2023/05/23 11:45:54;;;;;;;8.60;3.70;;;;;;;28.65;38.85;98495.67;274026;1264;22480;-84
2023/05/23 11:51:55;;;;;;;9.40;3.60;;;;;;;28.55;38.07;98496.08;274132;1266;22372;-82
2023/05/23 11:57:56;;;;;;;7.60;3.40;;;;;;;28.27;37.63;98494.85;274053;1266;22315;-82
2023/05/23 12:03:57;;;;;;;5.50;3.50;;;;;;;28.13;37.86;98495.30;274022;1256;25113;-83
2023/05/23 12:09:58;;;;;;;9.40;3.60;;;;;;;27.91;37.38;98499.06;274161;1253;23740;-83
2023/05/23 12:16:00;;;;;;;5.80;3.90;;;;;;;27.79;37.57;98493.52;273531;1253;22477;-83
2023/05/23 12:22:06;;;;;;;11.60;3.50;;;;;;;27.53;37.45;98493.61;274139;1266;22922;-83
2023/05/23 12:28:09;;;;;;;6.80;3.50;;;;;;;27.26;37.81;98486.70;274094;1266;22867;-83
2023/05/23 12:34:11;;;;;;;9.80;3.80;;;;;;;27.06;37.17;98477.98;273470;1256;22579;-84
2023/05/23 12:40:17;;;;;;;7.50;3.70;;;;;;;26.57;37.14;98476.02;273484;1266;22532;-85
2023/05/23 12:46:19;;;;;;;5.90;3.40;;;;;;;26.48;37.70;98478.99;273774;1256;23299;-83
2023/05/23 12:52:20;;;;;;;7.10;4.00;;;;;;;26.53;37.75;98483.78;272878;1256;24487;-83
2023/05/23 12:58:21;;;;;;;7.20;4.30;;;;;;;26.49;37.83;98486.75;271775;1259;22535;-84
2023/05/23 13:04:22;;;;;;;8.70;4.10;;;;;;;26.38;37.97;98483.31;271233;1267;22630;-83
2023/05/23 13:10:23;;;;;;;9.90;3.90;;;;;;;26.24;38.12;98472.74;272153;1267;22588;-85
2023/05/23 13:16:24;;;;;;;6.20;4.00;;;;;;;26.16;38.34;98467.25;271817;1266;22575;-83
2023/05/23 13:22:25;;;;;;;5.20;4.20;;;;;;;26.13;38.65;98463.23;272041;1256;23638;-83
2023/05/23 13:28:26;;;;;;;7.90;3.80;;;;;;;26.11;38.86;98464.38;271394;1267;23105;-84
2023/05/23 13:34:27;;;;;;;11.40;4.00;;;;;;;25.89;38.76;98472.91;272160;1267;23740;-84
2023/05/23 13:40:28;;;;;;;12.10;4.80;;;;;;;25.67;38.82;98481.61;274106;1266;22354;-84
2023/05/23 13:46:29;;;;;;;7.50;4.60;;;;;;;25.45;39.44;98487.55;273030;1267;23328;-84
2023/05/23 13:52:30;;;;;;;10.00;4.30;;;;;;;25.25;39.65;98487.79;274095;1267;22334;-83
2023/05/23 13:58:31;;;;;;;4.90;3.60;;;;;;;25.12;41.18;98479.67;274031;1263;22375;-83
2023/05/23 14:04:32;;;;;;;7.70;4.30;;;;;;;24.98;41.41;98481.77;274071;1266;22237;-84
2023/05/23 14:10:34;;;;;;;8.50;4.50;;;;;;;24.90;42.02;98480.63;274135;1266;22331;-86
2023/05/23 14:16:35;;;;;;;5.40;4.10;;;;;;;24.82;43.79;98495.29;273908;1267;22317;-83
2023/05/23 14:22:36;;;;;;;15.80;5.70;;;;;;;24.39;45.36;98533.83;274063;1267;22387;-84
2023/05/23 14:28:37;;;;;;;20.20;5.70;;;;;;;23.65;46.95;98541.23;273195;1266;23007;-86
2023/05/23 14:34:38;;;;;;;13.70;5.30;;;;;;;23.09;49.45;98554.73;272108;1265;22593;-85
2023/05/23 14:40:39;;;;;;;14.60;5.90;;;;;;;22.66;51.28;98548.81;271469;1256;24213;-83
2023/05/23 14:46:41;;;;;;;10.00;4.90;;;;;;;22.36;53.14;98540.64;273093;1256;23159;-84
2023/05/23 14:52:46;;;;;;;10.20;5.80;;;;;;;22.04;53.88;98532.67;273930;1267;22336;-86
2023/05/23 14:58:47;;;;;;;7.30;4.60;;;;;;;21.89;55.51;98530.15;273981;1263;22232;-84
2023/05/23 15:04:47;;;;;;;5.50;4.40;;;;;;;21.86;56.22;98525.81;271269;1259;24285;-83
2023/05/23 15:10:48;;;;;;;6.60;4.10;;;;;;;21.81;56.83;98523.94;273096;1263;22192;-84
2023/05/23 15:16:50;;;;;;;5.20;4.10;;;;;;;21.72;57.95;98525.79;272773;1266;22186;-84
2023/05/23 15:22:50;;;;;;;5.10;4.00;;;;;;;21.72;58.44;98530.50;273948;1256;22315;-84
2023/05/23 15:28:52;;;;;;;7.90;5.30;;;;;;;21.61;58.77;98526.95;273966;1257;22339;-85
2023/05/23 15:34:55;;;;;;;7.60;5.60;;;;;;;21.57;59.71;98520.25;273268;1267;22574;-84
2023/05/23 15:40:58;;;;;;;8.70;6.60;;;;;;;21.57;60.61;98511.52;272170;1254;26513;-84
2023/05/23 15:46:59;;;;;;;7.70;6.40;;;;;;;21.51;61.61;98507.63;271443;1267;23588;-84
2023/05/23 15:53:00;;;;;;;9.70;6.40;;;;;;;21.36;62.06;98512.99;272153;1267;22307;-84
2023/05/23 15:59:01;;;;;;;6.40;5.50;;;;;;;21.04;63.93;98511.48;273248;1264;22539;-86
2023/05/23 16:05:02;;;;;;;6.80;5.10;;;;;;;20.85;64.24;98501.06;274102;1266;22281;-84
2023/05/23 16:11:03;;;;;;;9.10;5.20;;;;;;;20.69;64.77;98504.46;274104;1267;22180;-85
2023/05/23 16:17:05;;;;;;;10.00;4.50;;;;;;;20.51;65.78;98508.63;274085;1266;22411;-84
2023/05/23 16:23:06;;;;;;;7.00;4.60;;;;;;;20.43;66.38;98510.69;274014;1251;22457;-84
2023/05/23 16:29:10;;;;;;;6.30;4.90;;;;;;;20.28;67.28;98520.98;274159;1266;22327;-84
2023/05/23 16:35:11;;;;;;;11.00;5.70;;;;;;;20.10;68.60;98527.20;274138;1266;22479;-84
2023/05/23 16:41:12;;;;;;;8.80;5.20;;;;;;;19.98;68.99;98517.14;273187;1265;22484;-84
2023/05/23 16:47:13;;;;;;;6.00;4.90;;;;;;;19.87;69.80;98515.37;274008;1267;22277;-83
2023/05/23 16:53:14;;;;;;;6.70;5.00;;;;;;;19.83;70.59;98518.76;272051;1268;22381;-86
2023/05/23 16:59:16;;;;;;;6.00;4.60;;;;;;;19.77;71.04;98519.21;273162;1260;22503;-84
2023/05/23 17:05:18;;;;;;;7.20;4.30;;;;;;;19.64;71.34;98512.41;272073;1267;23397;-84
2023/05/23 17:11:20;;;;;;;7.70;4.20;;;;;;;19.63;72.37;98514.27;273667;1268;22396;-84
2023/05/23 17:17:21;;;;;;;9.00;4.70;;;;;;;19.60;72.51;98523.73;273233;1267;25481;-85
2023/05/23 17:23:22;;;;;;;6.30;4.70;;;;;;;19.53;73.03;98524.34;274144;1267;22414;-84
2023/05/23 17:29:24;;;;;;;10.00;4.90;;;;;;;19.48;73.40;98523.66;274138;1264;23091;-84
2023/05/23 17:35:28;;;;;;;9.90;5.00;;;;;;;19.41;74.42;98525.61;274236;1267;22384;-85
2023/05/23 17:41:30;;;;;;;7.30;5.00;;;;;;;19.37;74.78;98525.20;274171;1266;22289;-84
2023/05/23 17:47:32;;;;;;;7.10;5.20;;;;;;;19.33;75.32;98531.66;274177;1267;22326;-84
2023/05/23 17:53:33;;;;;;;10.70;5.70;;;;;;;19.23;75.75;98541.39;274068;1267;22216;-84
2023/05/23 17:59:34;;;;;;;7.50;5.40;;;;;;;19.09;76.52;98541.34;273926;1257;23033;-84
2023/05/23 18:05:35;;;;;;;9.50;6.20;;;;;;;18.96;77.18;98541.80;274153;1261;22296;-83
2023/05/23 18:11:36;;;;;;;9.80;6.10;;;;;;;18.86;77.90;98547.08;274164;1251;22333;-83
2023/05/23 18:17:38;;;;;;;11.00;7.30;;;;;;;18.79;78.74;98547.23;274064;1266;22433;-83
2023/05/23 18:23:39;;;;;;;8.60;6.20;;;;;;;18.73;78.80;98545.27;274125;1267;22418;-84
2023/05/23 18:29:40;;;;;;;9.00;6.90;;;;;;;18.66;79.47;98552.02;274005;1266;22490;-84
2023/05/23 18:35:42;;;;;;;10.70;6.50;;;;;;;18.58;79.80;98557.64;273324;1265;22227;-85
2023/05/23 18:41:46;;;;;;;12.20;7.40;;;;;;;18.48;80.32;98576.92;273939;1266;22254;-83
2023/05/23 18:47:48;;;;;;;10.00;7.00;;;;;;;18.40;80.82;98587.05;273971;1266;22420;-84
2023/05/23 18:53:50;;;;;;;13.10;8.00;;;;;;;18.32;81.05;98593.39;273926;1262;22359;-83
2023/05/23 18:59:51;;;;;;;16.90;8.60;;;;;;;18.23;81.34;98594.90;273984;1266;22341;-84
2023/05/23 19:05:53;;;;;;;15.30;8.50;;;;;;;18.19;82.18;98595.00;273967;1266;22531;-83
2023/05/23 19:11:54;;;;;;;17.50;9.70;;;;;;;18.16;82.55;98596.27;273305;1263;25579;-85
2023/05/23 19:18:06;;;;;;;14.90;8.80;;;;;;;18.11;82.87;98598.54;273256;1266;22306;-83
2023/05/23 19:24:08;;;;;;;12.80;8.40;;;;;;;18.03;83.04;98605.70;273792;1265;22439;-84
2023/05/23 19:30:10;;;;;;;17.00;8.80;;;;;;;17.90;83.40;98611.63;274001;1266;23218;-84
2023/05/23 19:36:12;;;;;;;15.30;7.00;;;;;;;17.82;83.90;98612.52;273932;1266;22232;-83
2023/05/23 19:42:14;;;;;;;14.30;8.00;;;;;;;17.79;84.49;98616.33;272603;1267;22651;-85
2023/05/23 19:48:16;;;;;;;17.50;10.20;;;;;;;17.70;85.01;98621.60;271814;1266;22416;-86
2023/05/23 19:54:21;;;;;;;18.10;9.90;;;;;;;17.60;85.63;98627.70;273226;1266;22385;-83
2023/05/23 20:00:22;;;;;;;14.20;11.30;;;;;;;17.51;86.68;98632.89;271932;1266;22491;-82
2023/05/23 20:06:23;;;;;;;17.20;12.20;;;;;;;17.48;87.62;98636.89;271158;1260;22545;-83
2023/05/23 20:12:27;;;;;;;17.00;10.40;;;;;;;17.50;88.04;98639.46;271485;1263;22481;-86
2023/05/23 20:18:29;;;;;;;20.80;13.80;;;;;;;17.50;88.14;98638.37;271685;1266;22611;-84
2023/05/23 20:24:30;;;;;;;18.10;12.90;;;;;;;17.44;88.76;98641.17;273070;1266;22415;-84
2023/05/23 20:30:32;;;;;;;20.50;11.70;;;;;;;17.39;89.05;98640.02;274117;1260;23102;-84
2023/05/23 20:36:34;;;;;;;24.20;12.50;;;;;;;17.35;89.45;98646.27;274177;1266;22376;-84
2023/05/23 20:42:35;;;;;;;22.40;12.40;;;;;;;17.35;90.22;98653.61;274159;1266;22492;-83
2023/05/23 20:48:36;;;;;;;16.30;11.60;;;;;;;17.33;90.71;98660.37;274196;1255;22201;-84
2023/05/23 20:54:37;;;;;;;20.10;13.90;;;;;;;17.30;91.53;98662.34;274126;1263;22439;-84
2023/05/23 21:00:38;;;;;;;17.80;10.90;;;;;;;17.28;91.70;98667.11;273818;1259;22492;-84
2023/05/23 21:06:39;;;;;;;16.50;11.20;;;;;;;17.24;92.32;98667.50;273957;1263;22270;-84
2023/05/23 21:12:45;;;;;;;21.70;12.80;;;;;;;17.20;93.03;98668.38;274109;1265;22338;-84
2023/05/23 21:18:46;;;;;;;16.50;11.50;;;;;;;17.18;93.50;98676.06;271486;1259;22335;-84
2023/05/23 21:24:49;;;;;;;20.20;12.50;;;;;;;17.09;93.69;98674.30;273915;1253;22215;-84
2023/05/23 21:30:50;;;;;;;18.60;12.70;;;;;;;17.02;94.47;98675.23;273821;1250;23431;-84
2023/05/23 21:36:53;;;;;;;24.60;15.80;;;;;;;16.98;95.04;98678.14;271312;1256;22609;-84
2023/05/23 21:42:54;;;;;;;25.50;17.20;;;;;;;16.95;95.55;98683.34;272458;1256;22309;-84
2023/05/23 21:48:55;;;;;;;24.10;16.70;;;;;;;16.91;95.93;98680.27;273434;1256;22219;-84
2023/05/23 21:54:56;;;;;;;32.90;18.50;;;;;;;16.83;96.20;98678.83;271761;1264;119549;-83
2023/05/23 22:00:57;;;;;;;29.70;17.60;;;;;;;16.72;96.63;98681.48;272980;1266;22320;-84
2023/05/23 22:06:58;;;;;;;29.60;18.30;;;;;;;16.69;97.33;98684.08;273848;1259;22445;-84
2023/05/23 22:12:59;;;;;;;27.70;16.30;;;;;;;16.67;97.97;98689.15;271296;1267;22562;-84
2023/05/23 22:19:00;;;;;;;20.00;13.20;;;;;;;16.65;98.18;98697.17;272377;1266;22682;-85
2023/05/23 22:25:01;;;;;;;20.80;12.60;;;;;;;16.62;98.56;98696.11;272821;1253;22329;-84
2023/05/23 22:31:02;;;;;;;17.90;11.90;;;;;;;16.57;98.80;98695.18;274057;1266;22324;-84
2023/05/23 22:37:03;;;;;;;16.20;12.00;;;;;;;16.56;99.18;98699.95;274020;1257;22211;-85
2023/05/23 22:43:05;;;;;;;16.00;12.20;;;;;;;16.55;99.49;98701.45;274091;1267;23409;-84
2023/05/23 22:49:07;;;;;;;18.70;13.60;;;;;;;16.51;99.81;98701.21;274083;1254;23552;-84
2023/05/23 22:55:09;;;;;;;19.10;12.90;;;;;;;16.47;99.89;98697.73;274071;1266;22279;-85
2023/05/23 23:01:10;;;;;;;20.70;13.30;;;;;;;16.44;100.00;98699.82;274027;1265;22933;-84
2023/05/23 23:07:11;;;;;;;22.10;14.50;;;;;;;16.39;100.00;98698.86;273983;1266;22203;-84
2023/05/23 23:13:12;;;;;;;23.00;14.10;;;;;;;16.38;100.00;98698.41;274033;1266;22403;-85
2023/05/23 23:19:14;;;;;;;23.70;14.20;;;;;;;16.37;100.00;98696.45;274097;1251;23546;-86
2023/05/23 23:25:17;;;;;;;25.90;14.10;;;;;;;16.30;100.00;98692.52;273991;1266;22363;-84
2023/05/23 23:31:18;;;;;;;20.40;14.90;;;;;;;16.22;100.00;98686.69;274085;1254;22328;-84
2023/05/23 23:37:19;;;;;;;18.80;14.20;;;;;;;16.15;100.00;98687.18;274062;1266;23056;-84
2023/05/23 23:43:20;;;;;;;17.60;11.90;;;;;;;16.08;100.00;98687.94;274067;1254;23169;-84
2023/05/23 23:49:20;;;;;;;16.90;13.60;;;;;;;16.06;100.00;98690.02;274003;1260;23548;-83
2023/05/23 23:55:21;;;;;;;15.80;13.00;;;;;;;16.02;100.00;98685.66;274003;1260;22347;-84
